createdAt,value
2023-01-30T00:00:06.977Z,15.73
2023-01-30T00:02:35.743Z,16.37
2023-01-30T00:05:05.991Z,15.67
2023-01-30T00:07:34.285Z,17.10
2023-01-30T00:10:02.659Z,15.77
2023-01-30T00:12:31.528Z,16.30
2023-01-30T00:15:00.673Z,16.00
2023-01-30T00:17:28.793Z,15.47
2023-01-30T00:19:56.982Z,17.07
2023-01-30T00:22:26.953Z,15.80
2023-01-30T00:24:58.867Z,17.37
2023-01-30T00:27:27.855Z,18.17
2023-01-30T00:30:02.925Z,17.80
2023-01-30T00:32:31.849Z,17.33
2023-01-30T00:35:00.708Z,16.33
2023-01-30T00:37:30.345Z,15.83
2023-01-30T00:39:58.746Z,17.40
2023-01-30T00:42:44.200Z,16.50
2023-01-30T00:45:30.960Z,16.40
2023-01-30T00:48:01.584Z,16.97
2023-01-30T00:50:42.468Z,15.83
2023-01-30T00:53:17.429Z,17.40
2023-01-30T00:55:46.102Z,17.57
2023-01-30T00:58:14.854Z,17.70
2023-01-30T01:00:43.069Z,16.63
2023-01-30T01:03:11.396Z,16.23
2023-01-30T01:05:40.343Z,17.53
2023-01-30T01:08:08.583Z,18.03
2023-01-30T01:10:41.437Z,17.80
2023-01-30T01:13:10.638Z,18.53
2023-01-30T01:15:42.272Z,17.43
2023-01-30T01:18:10.369Z,18.43
2023-01-30T01:20:38.559Z,18.20
2023-01-30T01:23:06.937Z,18.60
2023-01-30T01:25:35.210Z,18.00
2023-01-30T01:28:06.096Z,19.17
2023-01-30T01:30:34.398Z,19.33
2023-01-30T01:33:05.413Z,18.33
2023-01-30T01:35:41.217Z,18.93
2023-01-30T01:38:09.344Z,17.33
2023-01-30T01:40:55.375Z,19.77
2023-01-30T01:43:27.948Z,19.63
2023-01-30T01:46:00.960Z,18.90
2023-01-30T01:48:34.238Z,18.70
2023-01-30T01:51:10.272Z,17.97
2023-01-30T01:53:46.025Z,17.87
2023-01-30T01:56:17.956Z,17.47
2023-01-30T01:58:52.567Z,19.17
2023-01-30T02:01:22.135Z,19.40
2023-01-30T02:03:55.399Z,19.10
2023-01-30T02:06:27.387Z,19.37
2023-01-30T02:09:00.724Z,18.60
2023-01-30T02:11:34.426Z,16.57
2023-01-30T02:14:07.003Z,20.00
2023-01-30T02:16:37.803Z,19.00
2023-01-30T02:19:14.968Z,19.80
2023-01-30T02:22:08.945Z,20.63
2023-01-30T02:25:02.799Z,18.10
2023-01-30T02:28:07.091Z,19.07
2023-01-30T02:30:49.275Z,21.77
2023-01-30T02:33:25.664Z,19.47
2023-01-30T02:36:05.443Z,20.13
2023-01-30T02:38:42.971Z,24.00
2023-01-30T02:41:21.500Z,22.20
2023-01-30T02:44:01.799Z,21.00
2023-01-30T02:46:40.905Z,21.30
2023-01-30T02:49:12.561Z,22.17
2023-01-30T02:51:42.165Z,23.73
2023-01-30T02:54:13.419Z,23.90
2023-01-30T02:56:50.041Z,22.20
2023-01-30T02:59:22.691Z,21.67
2023-01-30T03:02:13.424Z,22.27
2023-01-30T03:05:06.266Z,22.13
2023-01-30T03:07:46.345Z,22.17
2023-01-30T03:10:29.080Z,22.03
2023-01-30T03:13:04.023Z,23.30
2023-01-30T03:15:36.552Z,24.77
2023-01-30T03:18:06.793Z,22.93
2023-01-30T03:20:39.535Z,23.37
2023-01-30T03:23:11.170Z,23.53
2023-01-30T03:25:41.793Z,21.63
2023-01-30T03:28:15.047Z,23.67
2023-01-30T03:30:44.133Z,24.93
2023-01-30T03:33:13.666Z,24.67
2023-01-30T03:35:43.282Z,25.43
2023-01-30T03:38:12.231Z,24.93
2023-01-30T03:40:43.628Z,25.03
2023-01-30T03:43:11.920Z,25.30
2023-01-30T03:45:40.153Z,25.37
2023-01-30T03:48:08.415Z,27.83
2023-01-30T03:50:38.534Z,27.20
2023-01-30T03:53:06.893Z,26.63
2023-01-30T03:55:35.258Z,27.20
2023-01-30T03:58:04.135Z,23.00
2023-01-30T04:00:44.679Z,26.73
2023-01-30T04:03:16.828Z,25.63
2023-01-30T04:05:46.933Z,25.30
2023-01-30T04:08:16.474Z,25.27
2023-01-30T04:10:46.924Z,26.33
2023-01-30T04:13:15.357Z,24.90
2023-01-30T04:15:43.384Z,24.77
2023-01-30T04:18:14.989Z,22.43
2023-01-30T04:20:44.036Z,21.57
2023-01-30T04:23:16.346Z,25.77
2023-01-30T04:25:48.406Z,22.67
2023-01-30T04:28:16.654Z,22.47
2023-01-30T04:30:45.474Z,23.60
2023-01-30T04:33:14.027Z,22.37
2023-01-30T04:35:42.782Z,20.87
2023-01-30T04:38:11.436Z,21.30
2023-01-30T04:40:41.352Z,21.77
2023-01-30T04:43:09.688Z,20.93
2023-01-30T04:45:37.864Z,18.40
2023-01-30T04:48:06.963Z,19.83
2023-01-30T04:50:35.050Z,20.47
2023-01-30T04:53:03.129Z,20.60
2023-01-30T04:55:32.583Z,20.80
2023-01-30T04:58:02.249Z,19.90
2023-01-30T05:00:31.140Z,20.70
2023-01-30T05:03:00.759Z,19.73
2023-01-30T05:05:31.048Z,18.37
2023-01-30T05:07:59.318Z,18.63
2023-01-30T05:10:28.008Z,19.17
2023-01-30T05:12:56.187Z,18.33
2023-01-30T05:15:25.939Z,17.50
2023-01-30T05:17:57.094Z,18.23
2023-01-30T05:20:25.457Z,18.00
2023-01-30T05:22:58.210Z,18.43
2023-01-30T05:25:26.967Z,17.07
2023-01-30T05:27:57.185Z,18.30
2023-01-30T05:30:29.728Z,17.20
2023-01-30T05:32:59.478Z,16.30
2023-01-30T05:35:29.283Z,14.97
2023-01-30T05:37:59.579Z,16.03
2023-01-30T05:40:28.008Z,17.40
2023-01-30T05:42:56.694Z,15.50
2023-01-30T05:45:26.231Z,14.40
2023-01-30T05:48:00.611Z,14.07
2023-01-30T05:50:29.726Z,13.13
2023-01-30T05:52:59.217Z,13.30
2023-01-30T05:55:28.651Z,13.57
2023-01-30T05:57:58.408Z,13.73
2023-01-30T06:00:30.548Z,13.03
2023-01-30T06:02:59.368Z,12.87
2023-01-30T06:05:27.639Z,14.13
2023-01-30T06:07:57.243Z,14.23
2023-01-30T06:10:27.395Z,13.60
2023-01-30T06:12:55.627Z,13.17
2023-01-30T06:15:23.964Z,13.23
2023-01-30T06:17:54.031Z,14.20
2023-01-30T06:20:24.666Z,13.73
2023-01-30T06:22:52.871Z,14.20
2023-01-30T06:25:21.389Z,13.67
2023-01-30T06:27:49.999Z,13.93
2023-01-30T06:30:19.023Z,14.10
2023-01-30T06:32:53.049Z,13.27
2023-01-30T06:35:21.385Z,13.60
2023-01-30T06:37:51.197Z,13.43
2023-01-30T06:40:19.667Z,13.73
2023-01-30T06:42:48.037Z,12.83
2023-01-30T06:45:20.160Z,13.27
2023-01-30T06:47:52.330Z,13.30
2023-01-30T06:50:26.509Z,13.47
2023-01-30T06:52:56.714Z,13.63
2023-01-30T06:55:26.587Z,13.87
2023-01-30T06:58:03.856Z,12.97
2023-01-30T07:00:32.882Z,12.80
2023-01-30T07:03:02.176Z,14.07
2023-01-30T07:05:33.775Z,14.20
2023-01-30T07:08:02.688Z,14.93
2023-01-30T07:10:32.415Z,15.03
2023-01-30T07:13:00.888Z,14.70
2023-01-30T07:15:29.258Z,15.10
2023-01-30T07:17:59.760Z,14.63
2023-01-30T07:20:33.354Z,14.63
2023-01-30T07:23:03.602Z,13.50
2023-01-30T07:25:32.141Z,13.50
2023-01-30T07:28:03.495Z,11.93
2023-01-30T07:30:33.495Z,13.40
2023-01-30T07:33:06.232Z,12.97
2023-01-30T07:35:37.785Z,11.27
2023-01-30T07:38:07.264Z,12.47
2023-01-30T07:40:35.746Z,11.00
2023-01-30T07:43:08.612Z,11.17
2023-01-30T07:45:39.757Z,11.17
2023-01-30T07:48:09.943Z,11.40
2023-01-30T07:50:39.689Z,10.47
2023-01-30T07:53:13.470Z,10.27
2023-01-30T07:55:42.438Z,11.00
2023-01-30T07:58:16.994Z,12.00
2023-01-30T08:00:45.423Z,11.93
2023-01-30T08:03:14.564Z,10.93
2023-01-30T08:05:47.225Z,9.67
2023-01-30T08:08:18.566Z,9.23
2023-01-30T08:10:47.297Z,10.20
2023-01-30T08:13:16.155Z,9.80
2023-01-30T08:15:44.368Z,9.40
2023-01-30T08:18:14.446Z,8.83
2023-01-30T08:20:44.878Z,8.50
2023-01-30T08:23:13.309Z,9.00
2023-01-30T08:25:44.105Z,7.30
2023-01-30T08:28:12.247Z,6.67
2023-01-30T08:30:43.320Z,6.30
2023-01-30T08:33:12.247Z,5.30
2023-01-30T08:35:41.542Z,5.37
2023-01-30T08:38:14.536Z,5.03
2023-01-30T08:40:46.967Z,4.60
2023-01-30T08:43:15.732Z,5.03
2023-01-30T08:45:47.489Z,4.30
2023-01-30T08:48:15.959Z,3.97
2023-01-30T08:50:44.212Z,3.20
2023-01-30T08:53:15.228Z,3.65
2023-01-30T08:55:45.671Z,3.65
2023-01-30T08:58:14.804Z,3.55
2023-01-30T09:00:51.917Z,2.85
2023-01-30T09:03:20.531Z,3.10
2023-01-30T09:05:58.057Z,2.97
2023-01-30T09:08:29.884Z,2.85
2023-01-30T09:11:00.392Z,2.58
2023-01-30T09:13:28.931Z,2.60
2023-01-30T09:15:57.075Z,2.55
2023-01-30T09:18:27.344Z,2.97
2023-01-30T09:21:03.899Z,2.40
2023-01-30T09:23:35.442Z,2.03
2023-01-30T09:26:04.082Z,2.25
2023-01-30T09:28:33.543Z,2.60
2023-01-30T09:31:04.106Z,2.28
2023-01-30T09:33:32.336Z,2.35
2023-01-30T09:36:00.728Z,3.60
2023-01-30T09:38:28.942Z,3.17
2023-01-30T09:41:23.733Z,2.58
2023-01-30T09:44:06.954Z,2.10
2023-01-30T09:46:47.354Z,2.55
2023-01-30T09:49:26.426Z,2.60
2023-01-30T09:52:03.603Z,1.75
2023-01-30T09:54:35.745Z,2.38
2023-01-30T09:57:22.553Z,2.47
2023-01-30T10:00:01.285Z,3.13
2023-01-30T10:02:42.883Z,3.40
2023-01-30T10:05:11.648Z,2.70
2023-01-30T10:08:01.215Z,3.60
2023-01-30T10:10:42.499Z,2.25
2023-01-30T10:13:34.515Z,2.63
2023-01-30T10:16:10.806Z,2.90
2023-01-30T10:18:59.378Z,2.17
2023-01-30T10:21:43.644Z,3.58
2023-01-30T10:24:40.476Z,2.50
2023-01-30T10:27:15.088Z,2.88
2023-01-30T10:29:51.003Z,2.17
2023-01-30T10:32:27.230Z,2.60
2023-01-30T10:34:59.588Z,2.25
2023-01-30T10:37:48.264Z,2.72
2023-01-30T10:40:28.892Z,2.72
2023-01-30T10:43:07.822Z,2.58
2023-01-30T10:45:43.291Z,2.50
2023-01-30T10:48:34.450Z,2.00
2023-01-30T10:51:28.312Z,2.50
2023-01-30T10:54:05.333Z,2.30
2023-01-30T10:56:42.357Z,2.55
2023-01-30T10:59:25.766Z,2.38
2023-01-30T11:02:21.224Z,2.50
2023-01-30T11:04:58.697Z,2.22
2023-01-30T11:07:32.001Z,2.30
2023-01-30T11:10:02.783Z,2.63
2023-01-30T11:12:32.712Z,2.10
2023-01-30T11:15:04.340Z,2.47
2023-01-30T11:17:38.812Z,1.95
2023-01-30T11:20:14.012Z,2.17
2023-01-30T11:22:55.521Z,2.40
2023-01-30T11:25:25.350Z,2.05
2023-01-30T11:28:00.339Z,2.17
2023-01-30T11:30:38.399Z,1.95
2023-01-30T11:33:14.543Z,2.20
2023-01-30T11:35:54.318Z,2.20
2023-01-30T11:38:31.503Z,2.17
2023-01-30T11:41:07.340Z,2.60
2023-01-30T11:56:43.528Z,2.97
2023-01-30T11:59:36.875Z,2.80
2023-01-30T12:02:27.842Z,2.42
2023-01-30T12:05:25.566Z,2.22
2023-01-30T12:08:40.601Z,2.33
2023-01-30T12:11:28.117Z,2.50
2023-01-30T12:14:09.823Z,2.30
2023-01-30T12:16:52.022Z,2.00
2023-01-30T12:19:47.762Z,2.03
2023-01-30T12:22:23.971Z,2.40
2023-01-30T12:25:00.038Z,2.30
2023-01-30T12:27:39.169Z,1.75
2023-01-30T12:30:23.559Z,2.10
2023-01-30T12:32:52.681Z,2.05
2023-01-30T12:35:29.345Z,2.25
2023-01-30T12:38:04.940Z,2.30
2023-01-30T12:40:47.190Z,2.67
2023-01-30T12:43:35.087Z,2.65
2023-01-30T12:46:20.291Z,2.17
2023-01-30T12:49:15.844Z,2.55
2023-01-30T12:51:56.294Z,2.42
2023-01-30T12:54:40.403Z,2.40
2023-01-30T12:57:27.833Z,2.13
2023-01-30T13:00:15.721Z,2.20
2023-01-30T13:03:05.218Z,1.65
2023-01-30T13:05:42.317Z,2.20
2023-01-30T13:08:26.949Z,2.13
2023-01-30T13:11:05.909Z,2.28
2023-01-30T13:13:43.069Z,2.20
2023-01-30T13:16:17.404Z,1.70
2023-01-30T13:18:52.652Z,2.13
2023-01-30T13:21:24.650Z,2.30
2023-01-30T13:24:05.223Z,2.78
2023-01-30T13:26:35.858Z,2.72
2023-01-30T13:29:10.790Z,1.83
2023-01-30T13:31:44.276Z,2.45
2023-01-30T13:34:19.248Z,2.72
2023-01-30T13:36:50.934Z,1.88
2023-01-30T13:39:28.629Z,2.28
2023-01-30T13:42:01.129Z,2.30
2023-01-30T13:44:32.370Z,2.38
2023-01-30T13:47:19.976Z,2.28
2023-01-30T13:49:58.603Z,3.15
2023-01-30T13:52:32.860Z,2.60
2023-01-30T13:55:07.516Z,2.40
2023-01-30T13:57:51.465Z,2.70
2023-01-30T14:00:32.126Z,3.38
2023-01-30T14:03:31.638Z,2.67
2023-01-30T14:06:32.266Z,2.58
2023-01-30T14:09:05.909Z,2.40
2023-01-30T14:11:38.122Z,2.22
2023-01-30T14:14:22.399Z,1.90
2023-01-30T14:16:53.640Z,2.47
2023-01-30T14:19:43.472Z,2.40
2023-01-30T14:22:36.735Z,3.55
2023-01-30T14:25:38.285Z,1.77
2023-01-30T14:28:51.997Z,1.40
2023-01-30T14:31:53.812Z,1.20
2023-01-30T14:35:04.284Z,1.00
2023-01-30T14:37:50.497Z,0.95
2023-01-30T14:41:04.978Z,0.73
2023-01-30T14:43:38.869Z,1.02
2023-01-30T14:46:14.243Z,1.00
2023-01-30T14:48:45.691Z,1.10
2023-01-30T14:51:20.952Z,1.58
2023-01-30T14:53:57.245Z,1.40
2023-01-30T14:56:43.458Z,1.48
2023-01-30T14:59:24.177Z,2.75
2023-01-30T15:02:07.537Z,1.88
2023-01-30T15:04:43.270Z,2.03
2023-01-30T15:07:16.342Z,1.98
2023-01-30T15:09:52.697Z,2.03
2023-01-30T15:12:48.111Z,1.90
2023-01-30T15:15:24.855Z,1.63
2023-01-30T15:18:12.555Z,1.80
2023-01-30T15:20:53.772Z,1.98
2023-01-30T15:24:03.280Z,1.50
2023-01-30T15:26:42.918Z,2.03
2023-01-30T15:29:38.158Z,2.95
2023-01-30T15:32:18.566Z,1.85
2023-01-30T15:34:55.991Z,2.17
2023-01-30T15:37:35.720Z,2.08
2023-01-30T15:40:21.836Z,2.00
2023-01-30T15:42:54.759Z,1.95
2023-01-30T15:45:32.369Z,1.40
2023-01-30T15:48:25.611Z,1.50
2023-01-30T15:50:56.468Z,1.33
2023-01-30T15:53:28.935Z,1.38
2023-01-30T15:55:57.993Z,2.65
2023-01-30T15:58:28.181Z,1.65
2023-01-30T16:00:59.798Z,1.80
2023-01-30T16:03:32.273Z,1.60
2023-01-30T16:06:00.942Z,1.40
2023-01-30T16:08:30.582Z,1.63
2023-01-30T16:11:00.670Z,1.50
2023-01-30T16:13:33.240Z,1.88
2023-01-30T16:16:07.255Z,2.08
2023-01-30T16:18:40.068Z,2.55
2023-01-30T16:21:11.067Z,1.50
2023-01-30T16:23:42.786Z,1.30
2023-01-30T16:26:17.321Z,2.42
2023-01-30T16:28:47.135Z,1.88
2023-01-30T16:31:16.109Z,1.95
2023-01-30T16:33:50.509Z,2.13
2023-01-30T16:36:34.262Z,1.58
2023-01-30T16:39:03.354Z,1.77
2023-01-30T16:41:35.415Z,1.58
2023-01-30T16:44:18.780Z,1.83
2023-01-30T16:46:50.726Z,1.80
2023-01-30T16:49:23.612Z,2.08
2023-01-30T16:52:04.223Z,2.58
2023-01-30T16:54:34.853Z,2.10
2023-01-30T16:57:03.752Z,1.98
2023-01-30T16:59:35.635Z,2.58
2023-01-30T17:02:06.946Z,2.20
2023-01-30T17:04:41.206Z,2.22
2023-01-30T17:07:36.715Z,2.60
2023-01-30T17:10:05.539Z,2.65
2023-01-30T17:12:44.792Z,2.88
2023-01-30T17:15:34.771Z,2.05
2023-01-30T17:18:07.497Z,2.47
2023-01-30T17:20:42.788Z,2.92
2023-01-30T17:23:17.407Z,2.60
2023-01-30T17:25:48.216Z,3.78
2023-01-30T17:28:24.196Z,2.00
2023-01-30T17:30:54.029Z,2.60
2023-01-30T17:33:22.352Z,2.63
2023-01-30T17:35:53.699Z,2.65
2023-01-30T17:38:24.605Z,3.40
2023-01-30T17:40:53.142Z,2.45
2023-01-30T17:43:24.480Z,2.25
2023-01-30T17:45:56.061Z,2.78
2023-01-30T17:48:25.523Z,2.15
2023-01-30T17:50:53.803Z,2.50
2023-01-30T17:53:22.581Z,2.78
2023-01-30T17:55:51.132Z,2.58
2023-01-30T17:58:20.297Z,2.33
2023-01-30T18:00:48.984Z,3.35
2023-01-30T18:03:18.676Z,3.55
2023-01-30T18:05:47.552Z,2.90
2023-01-30T18:08:16.509Z,3.13
2023-01-30T18:10:44.929Z,2.50
2023-01-30T18:13:13.183Z,2.47
2023-01-30T18:15:41.753Z,2.78
2023-01-30T18:18:16.116Z,3.20
2023-01-30T18:20:47.493Z,2.92
2023-01-30T18:23:16.482Z,3.30
2023-01-30T18:25:47.591Z,3.08
2023-01-30T18:28:15.952Z,3.00
2023-01-30T18:30:45.326Z,3.75
2023-01-30T18:33:13.549Z,3.40
2023-01-30T18:35:42.360Z,3.08
2023-01-30T18:38:12.242Z,2.38
2023-01-30T18:40:40.956Z,3.17
2023-01-30T18:43:11.987Z,2.67
2023-01-30T18:45:40.344Z,3.53
2023-01-30T18:48:09.311Z,3.95
2023-01-30T18:50:37.932Z,3.35
2023-01-30T18:53:08.532Z,3.28
2023-01-30T18:55:38.094Z,2.60
2023-01-30T18:58:06.325Z,3.67
2023-01-30T19:00:34.689Z,3.28
2023-01-30T19:03:02.998Z,2.90
2023-01-30T19:05:31.629Z,3.63
2023-01-30T19:08:00.216Z,3.35
2023-01-30T19:10:30.669Z,2.95
2023-01-30T19:13:17.627Z,2.75
2023-01-30T19:15:45.868Z,3.33
2023-01-30T19:18:14.473Z,2.80
2023-01-30T19:20:42.669Z,2.28
2023-01-30T19:23:10.894Z,2.97
2023-01-30T19:25:42.376Z,2.85
2023-01-30T19:28:11.876Z,3.83
2023-01-30T19:30:40.040Z,3.10
2023-01-30T19:33:08.614Z,3.17
2023-01-30T19:35:42.348Z,4.28
2023-01-30T19:38:16.237Z,2.85
2023-01-30T19:40:46.565Z,3.15
2023-01-30T19:43:16.178Z,4.28
2023-01-30T19:45:44.493Z,3.35
2023-01-30T19:48:13.381Z,3.42
2023-01-30T19:50:44.807Z,3.40
2023-01-30T19:53:13.184Z,3.83
2023-01-30T19:55:41.414Z,3.53
2023-01-30T19:58:12.521Z,3.80
2023-01-30T20:00:43.640Z,4.15
2023-01-30T20:03:13.043Z,3.17
2023-01-30T20:05:46.617Z,4.25
2023-01-30T20:08:30.464Z,3.50
2023-01-30T20:11:07.940Z,3.22
2023-01-30T20:13:36.791Z,3.33
2023-01-30T20:16:08.126Z,3.15
2023-01-30T20:18:38.728Z,3.58
2023-01-30T20:21:08.546Z,3.70
2023-01-30T20:23:37.420Z,3.00
2023-01-30T20:26:07.275Z,2.88
2023-01-30T20:28:35.943Z,3.55
2023-01-30T20:31:11.237Z,2.50
2023-01-30T20:33:40.460Z,3.63
2023-01-30T20:36:10.919Z,2.00
2023-01-30T20:38:42.501Z,2.83
2023-01-30T20:41:15.996Z,1.88
2023-01-30T20:43:46.126Z,2.35
2023-01-30T20:46:17.835Z,2.50
2023-01-30T20:48:46.547Z,2.25
2023-01-30T20:51:17.224Z,2.53
2023-01-30T20:53:54.243Z,3.13
2023-01-30T20:56:23.682Z,2.33
2023-01-30T20:58:52.750Z,2.33
2023-01-30T21:01:24.201Z,2.72
2023-01-30T21:03:53.997Z,3.38
2023-01-30T21:06:42.437Z,2.65
2023-01-30T21:09:15.663Z,2.58
2023-01-30T21:11:44.543Z,3.85
2023-01-30T21:14:13.879Z,7.95
2023-01-30T21:16:44.090Z,3.72
2023-01-30T21:19:14.545Z,3.10
2023-01-30T21:21:47.022Z,2.50
2023-01-30T21:24:16.465Z,3.53
2023-01-30T21:26:47.307Z,3.97
2023-01-30T21:29:17.874Z,2.67
2023-01-30T21:31:48.038Z,3.05
2023-01-30T21:34:16.317Z,2.97
2023-01-30T21:37:04.443Z,2.38
2023-01-30T21:39:50.428Z,2.72
2023-01-30T21:42:35.851Z,2.80
2023-01-30T21:45:05.119Z,3.40
2023-01-30T21:47:35.113Z,4.15
2023-01-30T21:50:03.492Z,2.65
2023-01-30T21:52:32.934Z,4.10
2023-01-30T21:55:01.109Z,2.85
2023-01-30T21:57:29.878Z,4.13
2023-01-30T21:59:58.168Z,3.30
2023-01-30T22:02:26.288Z,2.55
2023-01-30T22:04:55.962Z,3.00
2023-01-30T22:07:24.272Z,2.35
2023-01-30T22:09:52.552Z,2.53
2023-01-30T22:12:20.726Z,3.25
2023-01-30T22:14:48.923Z,2.55
2023-01-30T22:17:17.182Z,2.95
2023-01-30T22:19:45.474Z,2.67
2023-01-30T22:22:16.368Z,2.50
2023-01-30T22:24:44.786Z,3.75
2023-01-30T22:27:13.197Z,2.97
2023-01-30T22:29:41.618Z,3.00
2023-01-30T22:32:10.001Z,2.58
2023-01-30T22:34:38.480Z,2.60
2023-01-30T22:37:06.689Z,2.65
2023-01-30T22:39:36.277Z,2.80
2023-01-30T22:42:07.413Z,3.30
2023-01-30T22:44:42.116Z,2.90
2023-01-30T22:47:11.837Z,2.25
2023-01-30T22:49:40.204Z,2.00
2023-01-30T22:52:08.819Z,3.72
2023-01-30T22:54:39.761Z,3.03
2023-01-30T22:57:08.050Z,2.35
2023-01-30T22:59:36.892Z,2.72
2023-01-30T23:02:07.476Z,2.60
2023-01-30T23:04:35.876Z,3.53
2023-01-30T23:07:04.369Z,2.10
2023-01-30T23:09:32.694Z,3.13
2023-01-30T23:12:19.672Z,2.33
2023-01-30T23:14:48.598Z,2.40
2023-01-30T23:17:34.047Z,2.50
2023-01-30T23:20:02.396Z,2.13
2023-01-30T23:22:30.752Z,2.42
2023-01-30T23:25:00.838Z,2.53
2023-01-30T23:27:30.453Z,2.88
2023-01-30T23:29:58.642Z,2.88
2023-01-30T23:32:26.951Z,2.47
2023-01-30T23:34:55.242Z,2.17
2023-01-30T23:37:43.890Z,2.97
2023-01-30T23:40:13.115Z,2.80
2023-01-30T23:42:42.599Z,3.33
2023-01-30T23:45:20.000Z,3.15
2023-01-30T23:47:48.471Z,3.25
2023-01-30T23:50:16.984Z,3.05
2023-01-30T23:52:47.928Z,3.72
2023-01-30T23:55:16.165Z,3.25
2023-01-30T23:57:46.099Z,3.03
